createdAt,value
2023-05-05T00:00:21.360Z,53.69
2023-05-05T00:03:24.096Z,53.71
2023-05-05T00:06:25.600Z,54.25
2023-05-05T00:09:26.968Z,54.71
2023-05-05T00:12:28.523Z,55.07
2023-05-05T00:15:30.052Z,55.53
2023-05-05T00:18:33.662Z,55.56
2023-05-05T00:21:35.067Z,56.10
2023-05-05T00:24:36.631Z,55.81
2023-05-05T00:27:40.168Z,56.21
2023-05-05T00:30:42.401Z,56.90
2023-05-05T00:33:44.958Z,57.08
2023-05-05T00:36:46.412Z,57.46
2023-05-05T00:39:47.859Z,57.04
2023-05-05T00:42:52.275Z,57.35
2023-05-05T00:46:01.016Z,57.07
2023-05-05T00:49:02.726Z,57.28
2023-05-05T00:52:05.297Z,57.20
2023-05-05T00:55:07.520Z,57.17
2023-05-05T00:58:09.920Z,57.34
2023-05-05T01:01:11.979Z,57.55
2023-05-05T01:04:13.647Z,57.71
2023-05-05T01:07:36.065Z,57.42
2023-05-05T01:10:42.874Z,57.71
2023-05-05T01:13:55.615Z,57.80
2023-05-05T01:17:02.511Z,57.51
2023-05-05T01:20:32.502Z,57.96
2023-05-05T01:24:07.120Z,59.00
2023-05-05T01:27:37.214Z,59.38
2023-05-05T01:31:03.186Z,60.46
2023-05-05T01:34:08.579Z,61.44
2023-05-05T01:37:15.480Z,61.66
2023-05-05T01:40:22.548Z,62.47
2023-05-05T01:43:29.408Z,63.09
2023-05-05T01:46:33.859Z,63.19
2023-05-05T01:49:37.077Z,63.34
2023-05-05T01:52:41.063Z,63.12
2023-05-05T01:55:43.691Z,63.27
2023-05-05T01:58:46.479Z,63.23
2023-05-05T02:01:50.325Z,63.45
2023-05-05T02:04:53.986Z,64.61
2023-05-05T02:07:59.022Z,64.85
2023-05-05T02:11:00.844Z,64.45
2023-05-05T02:14:03.140Z,64.85
2023-05-05T02:17:05.027Z,64.83
2023-05-05T02:20:08.647Z,64.24
2023-05-05T02:23:10.323Z,63.91
2023-05-05T02:26:14.362Z,64.44
2023-05-05T02:29:32.748Z,65.10
2023-05-05T02:32:37.178Z,66.21
2023-05-05T02:35:41.562Z,65.67
2023-05-05T02:38:52.455Z,66.64
2023-05-05T02:41:55.367Z,66.93
2023-05-05T02:45:07.744Z,66.79
2023-05-05T02:48:12.877Z,68.30
2023-05-05T02:51:15.329Z,70.13
2023-05-05T02:54:17.298Z,70.52
2023-05-05T02:57:22.133Z,70.52
2023-05-05T03:00:52.569Z,72.30
2023-05-05T03:04:06.482Z,72.61
2023-05-05T03:07:20.762Z,72.70
2023-05-05T03:10:30.089Z,74.38
2023-05-05T03:13:40.322Z,75.36
2023-05-05T03:16:43.816Z,75.04
2023-05-05T03:19:47.528Z,75.73
2023-05-05T03:22:49.410Z,77.66
2023-05-05T03:25:51.461Z,79.21
2023-05-05T03:29:06.762Z,77.57
2023-05-05T03:32:09.753Z,76.73
2023-05-05T03:35:12.190Z,78.23
2023-05-05T03:38:13.894Z,77.76
2023-05-05T03:41:16.865Z,78.03
2023-05-05T03:44:18.307Z,78.82
2023-05-05T03:47:19.877Z,79.89
2023-05-05T03:50:22.173Z,80.19
2023-05-05T03:53:23.755Z,78.59
2023-05-05T03:56:26.609Z,80.70
2023-05-05T03:59:28.073Z,82.04
2023-05-05T04:02:29.747Z,80.48
2023-05-05T04:05:31.312Z,82.88
2023-05-05T04:08:33.428Z,83.96
2023-05-05T04:11:34.971Z,86.19
2023-05-05T04:14:36.739Z,86.15
2023-05-05T04:17:38.274Z,82.93
2023-05-05T04:20:39.982Z,85.74
2023-05-05T04:23:41.641Z,84.02
2023-05-05T04:26:43.144Z,86.38
2023-05-05T04:29:44.556Z,85.75
2023-05-05T04:32:46.110Z,87.17
2023-05-05T04:35:47.749Z,85.30
2023-05-05T04:38:49.957Z,87.40
2023-05-05T04:41:52.359Z,88.14
2023-05-05T04:44:53.971Z,88.04
2023-05-05T04:47:55.755Z,88.73
2023-05-05T04:50:57.501Z,89.30
2023-05-05T04:53:58.947Z,88.85
2023-05-05T04:57:00.357Z,89.39
2023-05-05T05:00:04.348Z,86.63
2023-05-05T05:03:06.228Z,89.41
2023-05-05T05:06:07.777Z,88.96
2023-05-05T05:09:11.007Z,87.79
2023-05-05T05:12:12.437Z,87.74
2023-05-05T05:15:14.122Z,88.44
2023-05-05T05:18:16.952Z,87.54
2023-05-05T05:21:18.883Z,87.66
2023-05-05T05:24:20.299Z,86.26
2023-05-05T05:27:21.779Z,86.20
2023-05-05T05:30:25.422Z,85.46
2023-05-05T05:33:26.980Z,86.51
2023-05-05T05:36:31.415Z,85.83
2023-05-05T05:39:32.917Z,84.17
2023-05-05T05:42:35.088Z,84.80
2023-05-05T05:45:37.364Z,83.33
2023-05-05T05:48:40.742Z,81.94
2023-05-05T05:51:43.280Z,80.43
2023-05-05T05:54:44.685Z,81.10
2023-05-05T05:57:46.167Z,82.35
2023-05-05T06:00:48.785Z,81.01
2023-05-05T06:03:50.539Z,81.21
2023-05-05T06:06:52.138Z,80.96
2023-05-05T06:09:53.908Z,80.75
2023-05-05T06:12:55.534Z,81.97
2023-05-05T06:15:57.358Z,80.30
2023-05-05T06:18:58.866Z,81.79
2023-05-05T06:22:00.395Z,81.48
2023-05-05T06:25:01.870Z,80.86
2023-05-05T06:28:05.456Z,81.26
2023-05-05T06:31:06.993Z,79.99
2023-05-05T06:34:08.541Z,79.55
2023-05-05T06:37:10.507Z,80.24
2023-05-05T06:40:12.466Z,81.53
2023-05-05T06:43:13.842Z,83.67
2023-05-05T06:46:20.863Z,82.93
2023-05-05T06:49:22.279Z,83.53
2023-05-05T06:52:23.722Z,80.10
2023-05-05T06:55:25.531Z,80.36
2023-05-05T06:58:27.066Z,78.65
2023-05-05T07:01:28.635Z,78.65
2023-05-05T07:04:30.220Z,80.11
2023-05-05T07:07:32.435Z,78.39
2023-05-05T07:10:33.856Z,75.85
2023-05-05T07:13:35.354Z,75.62
2023-05-05T07:16:37.207Z,74.43
2023-05-05T07:19:38.708Z,73.74
2023-05-05T07:22:40.070Z,71.55
2023-05-05T07:25:41.674Z,70.68
2023-05-05T07:28:43.904Z,70.41
2023-05-05T07:31:45.862Z,68.70
2023-05-05T07:34:47.346Z,68.09
2023-05-05T07:37:49.308Z,67.62
2023-05-05T07:40:50.781Z,68.72
2023-05-05T07:43:52.456Z,66.79
2023-05-05T07:46:53.836Z,67.19
2023-05-05T07:49:55.263Z,68.65
2023-05-05T07:53:06.229Z,67.29
2023-05-05T07:56:15.587Z,67.93
2023-05-05T07:59:16.995Z,69.46
2023-05-05T08:02:18.424Z,68.75
2023-05-05T08:05:19.905Z,68.75
2023-05-05T08:08:24.401Z,67.41
2023-05-05T08:11:27.793Z,67.53
2023-05-05T08:14:30.787Z,65.93
2023-05-05T08:17:52.354Z,65.19
2023-05-05T08:20:54.575Z,63.89
2023-05-05T08:23:56.035Z,63.43
2023-05-05T08:26:57.473Z,64.01
2023-05-05T08:29:59.189Z,61.61
2023-05-05T08:33:01.073Z,61.38
2023-05-05T08:36:02.572Z,61.50
2023-05-05T08:39:04.128Z,61.47
2023-05-05T08:42:06.211Z,60.35
2023-05-05T08:45:11.392Z,60.30
2023-05-05T08:48:13.365Z,59.12
2023-05-05T08:51:19.612Z,58.29
2023-05-05T08:54:26.755Z,57.23
2023-05-05T08:57:41.282Z,55.38
2023-05-05T09:00:47.275Z,55.97
2023-05-05T09:03:49.774Z,56.30
2023-05-05T09:06:51.308Z,56.24
2023-05-05T09:09:53.273Z,54.62
2023-05-05T09:12:54.845Z,55.10
2023-05-05T09:15:56.658Z,55.06
2023-05-05T09:19:04.687Z,53.76
2023-05-05T09:22:06.109Z,53.74
2023-05-05T09:25:10.943Z,54.05
2023-05-05T09:28:17.275Z,53.56
2023-05-05T09:31:19.745Z,54.73
2023-05-05T09:34:21.186Z,54.17
2023-05-05T09:37:31.779Z,54.65
2023-05-05T09:40:46.101Z,54.50
2023-05-05T09:43:51.852Z,55.63
2023-05-05T09:46:55.175Z,54.69
2023-05-05T09:49:58.696Z,54.96
2023-05-05T09:53:02.359Z,54.41
2023-05-05T09:56:03.905Z,54.58
2023-05-05T09:59:09.459Z,54.84
2023-05-05T10:02:15.579Z,53.81
2023-05-05T10:05:18.308Z,54.08
2023-05-05T10:08:22.979Z,52.97
2023-05-05T10:11:24.382Z,51.98
2023-05-05T10:14:27.444Z,52.52
2023-05-05T10:17:32.905Z,50.76
2023-05-05T10:20:38.214Z,50.96
2023-05-05T10:23:48.386Z,52.95
2023-05-05T10:26:52.001Z,53.62
2023-05-05T10:30:04.015Z,54.24
2023-05-05T10:33:31.929Z,53.24
2023-05-05T10:36:34.503Z,53.33
2023-05-05T10:39:37.392Z,53.71
2023-05-05T10:42:42.518Z,52.77
2023-05-05T10:45:44.662Z,52.82
2023-05-05T10:48:56.525Z,52.00
2023-05-05T10:52:12.197Z,49.52
2023-05-05T10:55:18.326Z,52.02
2023-05-05T10:58:38.516Z,52.26
2023-05-05T11:01:45.862Z,52.66
2023-05-05T11:05:17.635Z,50.39
2023-05-05T11:08:26.704Z,50.23
2023-05-05T11:12:06.545Z,51.79
2023-05-05T11:15:26.523Z,51.50
2023-05-05T11:18:38.133Z,51.85
2023-05-05T11:22:00.636Z,51.77
2023-05-05T11:25:51.666Z,51.23
2023-05-05T11:29:03.836Z,50.93
2023-05-05T11:32:13.022Z,51.29
2023-05-05T11:35:15.486Z,50.27
2023-05-05T11:38:19.670Z,50.37
2023-05-05T11:41:33.414Z,51.33
2023-05-05T11:44:35.706Z,50.44
2023-05-05T11:47:37.152Z,51.42
2023-05-05T11:50:38.908Z,51.84
2023-05-05T11:53:49.541Z,50.47
2023-05-05T11:56:53.686Z,50.75
2023-05-05T12:00:08.068Z,51.24
2023-05-05T12:03:09.960Z,50.81
2023-05-05T12:06:11.457Z,50.95
2023-05-05T12:09:20.708Z,49.33
2023-05-05T12:12:34.863Z,49.34
2023-05-05T12:15:36.880Z,49.33
2023-05-05T12:18:39.411Z,48.19
2023-05-05T12:21:45.606Z,48.00
2023-05-05T12:24:55.087Z,48.41
2023-05-05T12:27:57.249Z,48.59
2023-05-05T12:30:58.877Z,49.49
2023-05-05T12:34:01.750Z,50.37
2023-05-05T12:37:03.240Z,49.50
2023-05-05T12:40:06.389Z,48.86
2023-05-05T12:43:08.079Z,49.23
2023-05-05T12:46:13.578Z,48.70
2023-05-05T12:49:15.106Z,48.76
2023-05-05T12:52:17.392Z,48.60
2023-05-05T12:55:19.657Z,49.06
2023-05-05T12:58:21.504Z,48.38
2023-05-05T13:01:22.925Z,48.27
2023-05-05T13:04:27.219Z,46.94
2023-05-05T13:07:28.687Z,47.47
2023-05-05T13:10:31.113Z,48.75
2023-05-05T13:13:32.548Z,47.34
2023-05-05T13:16:34.148Z,47.71
2023-05-05T13:19:41.508Z,46.80
2023-05-05T13:22:42.913Z,46.79
2023-05-05T13:25:44.303Z,47.11
2023-05-05T13:28:45.710Z,44.82
2023-05-05T13:31:47.322Z,45.09
2023-05-05T13:34:48.857Z,43.52
2023-05-05T13:37:50.372Z,43.08
2023-05-05T13:40:51.815Z,42.83
2023-05-05T13:43:53.240Z,43.32
2023-05-05T13:46:54.645Z,42.84
2023-05-05T13:49:56.230Z,43.22
2023-05-05T13:52:57.603Z,45.60
2023-05-05T13:55:59.364Z,43.90
2023-05-05T13:59:01.180Z,43.13
2023-05-05T14:02:02.646Z,43.17
2023-05-05T14:05:04.213Z,44.35
2023-05-05T14:08:05.641Z,43.03
2023-05-05T14:11:07.009Z,42.96
2023-05-05T14:14:08.412Z,43.02
2023-05-05T14:17:09.994Z,42.18
2023-05-05T14:20:12.082Z,42.82
2023-05-05T14:23:13.463Z,42.50
2023-05-05T14:26:14.865Z,42.69
2023-05-05T14:29:16.322Z,41.11
2023-05-05T14:32:17.964Z,41.34
2023-05-05T14:35:19.442Z,40.48
2023-05-05T14:38:21.013Z,41.29
2023-05-05T14:41:22.518Z,41.69
2023-05-05T14:44:23.934Z,40.63
2023-05-05T14:47:25.667Z,41.36
2023-05-05T14:50:27.076Z,41.75
2023-05-05T14:53:28.593Z,41.35
2023-05-05T14:56:30.183Z,40.90
2023-05-05T14:59:31.602Z,40.88
2023-05-05T15:02:33.013Z,41.14
2023-05-05T15:05:35.027Z,41.27
2023-05-05T15:08:38.760Z,40.61
2023-05-05T15:11:44.932Z,41.51
2023-05-05T15:14:46.432Z,42.21
2023-05-05T15:17:47.900Z,42.43
2023-05-05T15:20:49.369Z,42.37
2023-05-05T15:23:50.813Z,40.80
2023-05-05T15:26:52.226Z,41.88
2023-05-05T15:29:54.344Z,42.55
2023-05-05T15:32:55.834Z,42.08
2023-05-05T15:35:57.452Z,42.71
2023-05-05T15:38:58.831Z,41.89
2023-05-05T15:42:03.582Z,42.97
2023-05-05T15:45:06.022Z,44.29
2023-05-05T15:48:08.144Z,45.12
2023-05-05T15:51:12.644Z,46.08
2023-05-05T15:54:14.466Z,48.67
2023-05-05T15:57:16.302Z,51.88
2023-05-05T16:00:17.725Z,52.81
2023-05-05T16:03:19.268Z,55.79
2023-05-05T16:06:21.918Z,57.89
2023-05-05T16:09:23.604Z,62.04
2023-05-05T16:12:24.984Z,65.27
2023-05-05T16:15:26.346Z,67.60
2023-05-05T16:18:28.144Z,70.24
2023-05-05T16:21:29.680Z,69.86
2023-05-05T16:24:31.065Z,73.36
2023-05-05T16:27:32.520Z,75.79
2023-05-05T16:30:33.965Z,78.24
2023-05-05T16:33:36.242Z,81.66
2023-05-05T16:36:37.678Z,83.22
2023-05-05T16:39:40.192Z,84.92
2023-05-05T16:42:43.761Z,84.58
2023-05-05T16:45:47.981Z,84.82
2023-05-05T16:48:49.485Z,85.92
2023-05-05T16:51:54.495Z,85.15
2023-05-05T16:54:56.475Z,84.68
2023-05-05T16:57:57.834Z,83.49
2023-05-05T17:01:01.770Z,84.11
2023-05-05T17:04:03.241Z,83.73
2023-05-05T17:07:04.670Z,85.66
2023-05-05T17:10:06.843Z,88.83
2023-05-05T17:13:09.430Z,89.41
2023-05-05T17:16:11.040Z,88.89
2023-05-05T17:19:13.589Z,92.97
2023-05-05T17:22:15.013Z,91.83
2023-05-05T17:25:16.437Z,95.52
2023-05-05T17:28:17.821Z,93.79
2023-05-05T17:31:19.197Z,91.67
2023-05-05T17:34:20.972Z,91.07
2023-05-05T17:37:22.360Z,90.53
2023-05-05T17:40:24.027Z,95.04
2023-05-05T17:43:25.482Z,93.91
2023-05-05T17:46:27.257Z,93.02
2023-05-05T17:49:28.771Z,96.47
2023-05-05T17:52:30.267Z,95.72
2023-05-05T17:55:31.720Z,94.42
2023-05-05T17:58:33.178Z,97.14
2023-05-05T18:01:35.079Z,97.22
2023-05-05T18:04:38.238Z,97.26
2023-05-05T18:07:39.811Z,97.87
2023-05-05T18:10:41.215Z,98.90
2023-05-05T18:13:43.189Z,100.00
2023-05-05T18:16:49.359Z,100.00
2023-05-05T18:19:50.810Z,100.00
2023-05-05T18:22:52.287Z,99.88
2023-05-05T18:25:53.653Z,100.00
2023-05-05T18:28:55.060Z,100.00
2023-05-05T18:31:56.717Z,99.24
2023-05-05T18:34:58.273Z,100.00
2023-05-05T18:38:00.295Z,100.00
2023-05-05T18:41:01.717Z,100.00
2023-05-05T18:44:03.140Z,100.00
2023-05-05T18:47:04.916Z,100.00
2023-05-05T18:50:07.382Z,100.00
2023-05-05T18:53:10.904Z,100.00
2023-05-05T18:56:12.454Z,100.00
2023-05-05T18:59:13.849Z,100.00
2023-05-05T19:02:16.097Z,100.00
2023-05-05T19:05:18.070Z,100.00
2023-05-05T19:08:19.554Z,100.00
2023-05-05T19:11:22.595Z,100.00
2023-05-05T19:14:24.208Z,100.00
2023-05-05T19:17:25.638Z,100.00
2023-05-05T19:20:27.101Z,100.00
2023-05-05T19:23:28.473Z,100.00
2023-05-05T19:26:29.853Z,100.00
2023-05-05T19:29:31.985Z,100.00
2023-05-05T19:32:33.747Z,100.00
2023-05-05T19:35:35.321Z,100.00
2023-05-05T19:38:36.715Z,100.00
2023-05-05T19:41:38.082Z,100.00
2023-05-05T19:44:39.608Z,100.00
2023-05-05T19:47:41.124Z,100.00
2023-05-05T19:50:42.528Z,100.00
2023-05-05T19:53:43.962Z,100.00
2023-05-05T19:56:45.843Z,100.00
2023-05-05T19:59:49.544Z,100.00
2023-05-05T20:02:51.042Z,100.00
2023-05-05T20:05:52.560Z,100.00
2023-05-05T20:08:55.274Z,100.00
2023-05-05T20:11:58.878Z,100.00
2023-05-05T20:15:00.481Z,100.00
2023-05-05T20:18:01.963Z,100.00
2023-05-05T20:21:04.126Z,100.00
2023-05-05T20:24:06.816Z,100.00
2023-05-05T20:27:09.090Z,100.00
2023-05-05T20:30:12.029Z,100.00
2023-05-05T20:33:13.641Z,100.00
2023-05-05T20:36:15.499Z,100.00
2023-05-05T20:39:17.183Z,100.00
2023-05-05T20:42:18.746Z,100.00
2023-05-05T20:45:20.667Z,100.00
2023-05-05T20:48:22.320Z,100.00
2023-05-05T20:51:23.700Z,100.00
2023-05-05T20:54:25.208Z,100.00
2023-05-05T20:57:26.658Z,100.00
2023-05-05T21:00:28.339Z,100.00
2023-05-05T21:03:29.755Z,100.00
2023-05-05T21:06:32.127Z,100.00
2023-05-05T21:09:35.216Z,100.00
2023-05-05T21:12:37.010Z,100.00
2023-05-05T21:15:38.611Z,100.00
2023-05-05T21:18:40.137Z,100.00
2023-05-05T21:21:41.678Z,100.00
2023-05-05T21:24:43.106Z,100.00
2023-05-05T21:27:45.127Z,100.00
2023-05-05T21:30:54.965Z,100.00
2023-05-05T21:34:06.349Z,100.00
2023-05-05T21:37:08.492Z,100.00
2023-05-05T21:40:13.259Z,100.00
2023-05-05T21:43:14.828Z,100.00
2023-05-05T21:46:19.133Z,100.00
2023-05-05T21:49:20.562Z,100.00
2023-05-05T21:52:22.016Z,100.00
2023-05-05T21:55:23.516Z,100.00
2023-05-05T21:58:25.075Z,100.00
2023-05-05T22:01:27.053Z,100.00
2023-05-05T22:04:28.709Z,100.00
2023-05-05T22:07:31.132Z,100.00
2023-05-05T22:10:34.379Z,100.00
2023-05-05T22:13:35.979Z,100.00
2023-05-05T22:16:38.244Z,100.00
2023-05-05T22:19:39.725Z,100.00
2023-05-05T22:22:41.245Z,100.00
2023-05-05T22:25:44.288Z,100.00
2023-05-05T22:28:46.115Z,100.00
2023-05-05T22:31:47.639Z,100.00
2023-05-05T22:34:49.165Z,100.00
2023-05-05T22:37:50.556Z,100.00
2023-05-05T22:40:51.941Z,100.00
2023-05-05T22:43:53.870Z,100.00
2023-05-05T22:46:55.389Z,100.00
2023-05-05T22:49:56.931Z,100.00
2023-05-05T22:52:58.384Z,100.00
2023-05-05T22:55:59.770Z,100.00
2023-05-05T22:59:01.697Z,100.00
2023-05-05T23:02:03.135Z,100.00
2023-05-05T23:05:04.909Z,100.00
2023-05-05T23:08:06.601Z,100.00
2023-05-05T23:11:07.994Z,100.00
2023-05-05T23:14:09.388Z,100.00
2023-05-05T23:17:10.816Z,100.00
2023-05-05T23:20:12.990Z,100.00
2023-05-05T23:23:14.393Z,100.00
2023-05-05T23:26:15.868Z,100.00
2023-05-05T23:29:17.815Z,100.00
2023-05-05T23:32:19.264Z,100.00
2023-05-05T23:35:20.676Z,100.00
2023-05-05T23:38:22.147Z,100.00
2023-05-05T23:41:23.565Z,100.00
2023-05-05T23:44:25.051Z,100.00
2023-05-05T23:47:26.476Z,100.00
2023-05-05T23:50:27.874Z,100.00
2023-05-05T23:53:29.280Z,100.00
2023-05-05T23:56:30.945Z,100.00
2023-05-05T23:59:32.487Z,100.00
